PWSweather.com
Personal Weather Stations
Station Observations
NCCALABA57
The Farm, Calabash, NC 28467

The FarmCalabash, NC 28467

Lat: 33.9246539, Lon: -78.5696509

Elevation: 44

Station Type: Davis Vantage Pro 2

Latest ConditionsUpdated 11:10:01 PM EST Friday, Feb 23, 2018
Currently Today's Max Today's Min Today's Average
Temperature 63.4°F17.4°C 64.1°F17.8°C 55.3°F12.9°C 59.4°F15.2°C
Dew Point 61.6°F16.4°C 61.8°F16.6°C 54.9°F12.7°C 58.7°F14.8°C
Winds Calm Calm 2.3 mph NE3.7 kmh NE - 0.1 mph 0.2 kmh
Wind Gusts 2.3 mph3.7 kmh 4.6 mph7.4 kmh - -
Humidity 94% 100% 92% 98%
Pressure 30.36 in1028.1 mb 30.52 in1033.5 mb 30.36 in1028.1 mb -
Hour Temp Dew Point Humidity Winds Wind Gusts Pressure Precip Precip Rate Daily Precip Total
11:10 PM 63.4°F17.4°C 61.6°F16.4°C 94% Calm Calm 2.3 mph3.7 kmh 30.36 in1028.1 mb - 0.00 in0.0 mm 0.00 in0.0 mm
11:00 PM 63.5°F17.5°C 61.7°F16.5°C 94% 1.2 mph SSE1.9 kmh SSE 1.2 mph1.9 kmh 30.36 in1028.1 mb - 0.00 in0.0 mm 0.00 in0.0 mm
10:50 PM 63.4°F17.4°C 61.6°F16.4°C 94% 1.2 mph SSE1.9 kmh SSE 3.5 mph5.6 kmh 30.36 in1028.1 mb - 0.00 in0.0 mm 0.00 in0.0 mm
10:40 PM 63.2°F17.3°C 61.7°F16.5°C 95% Calm Calm 2.3 mph3.7 kmh 30.37 in1028.4 mb - 0.00 in0.0 mm 0.00 in0.0 mm
10:30 PM 62.8°F17.1°C 61.3°F16.3°C 95% Calm Calm 4.6 mph7.4 kmh 30.37 in1028.4 mb - 0.00 in0.0 mm 0.00 in0.0 mm
10:20 PM 62.9°F17.2°C 61.4°F16.3°C 95% Calm Calm 1.2 mph1.9 kmh 30.37 in1028.4 mb - 0.00 in0.0 mm 0.00 in0.0 mm
10:10 PM 63.0°F17.2°C 61.3°F16.3°C 94% Calm Calm -- 30.37 in1028.4 mb - 0.00 in0.0 mm 0.00 in0.0 mm
10:00 PM 63.3°F17.4°C 61.5°F16.4°C 94% Calm Calm -- 30.38 in1028.8 mb - 0.00 in0.0 mm 0.00 in0.0 mm
09:50 PM 63.4°F17.4°C 61.7°F16.5°C 94% Calm Calm 1.2 mph1.9 kmh 30.38 in1028.8 mb - 0.00 in0.0 mm 0.00 in0.0 mm
09:40 PM 63.5°F17.5°C 61.8°F16.6°C 94% Calm Calm 1.2 mph1.9 kmh 30.38 in1028.8 mb - 0.00 in0.0 mm 0.00 in0.0 mm
09:30 PM 63.5°F17.5°C 61.7°F16.5°C 94% Calm Calm 1.2 mph1.9 kmh 30.38 in1028.8 mb - 0.00 in0.0 mm 0.00 in0.0 mm
09:20 PM 63.5°F17.5°C 61.5°F16.4°C 93% Calm Calm -- 30.38 in1028.8 mb - 0.00 in0.0 mm 0.00 in0.0 mm
09:10 PM 63.7°F17.6°C 61.3°F16.3°C 92% Calm Calm -- 30.38 in1028.8 mb - 0.00 in0.0 mm 0.00 in0.0 mm
09:00 PM 63.9°F17.7°C 61.6°F16.4°C 92% Calm Calm -- 30.38 in1028.8 mb - 0.00 in0.0 mm 0.00 in0.0 mm
08:50 PM 64.0°F17.8°C 61.6°F16.4°C 92% Calm Calm -- 30.39 in1029.1 mb - 0.00 in0.0 mm 0.00 in0.0 mm
08:40 PM 64.1°F17.8°C 61.7°F16.5°C 92% Calm Calm 1.2 mph1.9 kmh 30.39 in1029.1 mb - 0.00 in0.0 mm 0.00 in0.0 mm
08:30 PM 64.1°F17.8°C 61.7°F16.5°C 92% Calm Calm -- 30.39 in1029.1 mb - 0.00 in0.0 mm 0.00 in0.0 mm
08:20 PM 64.0°F17.8°C 61.6°F16.4°C 92% Calm Calm 1.2 mph1.9 kmh 30.39 in1029.1 mb - 0.00 in0.0 mm 0.00 in0.0 mm
08:10 PM 64.0°F17.8°C 61.6°F16.4°C 92% Calm Calm 1.2 mph1.9 kmh 30.39 in1029.1 mb - 0.00 in0.0 mm 0.00 in0.0 mm
08:00 PM 64.0°F17.8°C 61.6°F16.4°C 92% 1.2 mph SE1.9 kmh SE 2.3 mph3.7 kmh 30.39 in1029.1 mb - 0.00 in0.0 mm 0.00 in0.0 mm
08:20 AM 60.3°F15.7°C 60.3°F15.7°C 100% 2.3 mph NE3.7 kmh NE 2.3 mph3.7 kmh 30.52 in1033.5 mb - 0.00 in0.0 mm 0.00 in0.0 mm
08:10 AM 59.3°F15.2°C 59.3°F15.2°C 100% Calm Calm 1.2 mph1.9 kmh 30.52 in1033.5 mb - 0.00 in0.0 mm 0.00 in0.0 mm
08:00 AM 58.5°F14.7°C 58.5°F14.7°C 100% Calm Calm 1.2 mph1.9 kmh 30.52 in1033.5 mb - 0.00 in0.0 mm 0.00 in0.0 mm
07:50 AM 57.2°F14.0°C 57.2°F14.0°C 100% Calm Calm -- 30.51 in1033.2 mb - 0.00 in0.0 mm 0.00 in0.0 mm
07:40 AM 56.5°F13.6°C 56.5°F13.6°C 100% Calm Calm -- 30.51 in1033.2 mb - 0.00 in0.0 mm 0.00 in0.0 mm
07:30 AM 55.9°F13.3°C 55.9°F13.3°C 100% Calm Calm -- 30.51 in1033.2 mb - 0.00 in0.0 mm 0.00 in0.0 mm
07:20 AM 55.5°F13.1°C 55.5°F13.1°C 100% Calm Calm -- 30.51 in1033.2 mb - 0.00 in0.0 mm 0.00 in0.0 mm
07:10 AM 55.3°F12.9°C 55.3°F12.9°C 100% Calm Calm -- 30.51 in1033.2 mb - 0.00 in0.0 mm 0.00 in0.0 mm
07:00 AM 55.3°F12.9°C 55.3°F12.9°C 100% Calm Calm -- 30.50 in1032.8 mb - 0.00 in0.0 mm 0.00 in0.0 mm
06:50 AM 55.3°F12.9°C 55.3°F12.9°C 100% Calm Calm -- 30.50 in1032.8 mb - 0.00 in0.0 mm 0.00 in0.0 mm
06:40 AM 55.4°F13.0°C 54.9°F12.7°C 98% Calm Calm -- 30.49 in1032.5 mb - 0.00 in0.0 mm 0.00 in0.0 mm
06:30 AM 55.7°F13.2°C 54.9°F12.7°C 97% Calm Calm -- 30.49 in1032.5 mb - 0.00 in0.0 mm 0.00 in0.0 mm
06:20 AM 56.0°F13.3°C 56.0°F13.3°C 100% Calm Calm -- 30.48 in1032.2 mb - 0.00 in0.0 mm 0.00 in0.0 mm
06:10 AM 56.2°F13.4°C 55.4°F13.0°C 97% Calm Calm -- 30.48 in1032.2 mb - 0.00 in0.0 mm 0.00 in0.0 mm
06:00 AM 56.5°F13.6°C 56.5°F13.6°C 100% Calm Calm -- 30.48 in1032.2 mb - 0.00 in0.0 mm 0.00 in0.0 mm
05:50 AM 56.9°F13.8°C 56.3°F13.5°C 98% Calm Calm -- 30.48 in1032.2 mb - 0.00 in0.0 mm 0.00 in0.0 mm
05:40 AM 57.1°F13.9°C 57.1°F13.9°C 100% Calm Calm -- 30.47 in1031.8 mb - 0.00 in0.0 mm 0.00 in0.0 mm
05:30 AM 57.4°F14.1°C 57.4°F14.1°C 100% Calm Calm -- 30.47 in1031.8 mb - 0.00 in0.0 mm 0.00 in0.0 mm
05:20 AM 57.6°F14.2°C 57.6°F14.2°C 100% Calm Calm -- 30.47 in1031.8 mb - 0.00 in0.0 mm 0.00 in0.0 mm
05:10 AM 57.9°F14.4°C 57.9°F14.4°C 100% Calm Calm -- 30.47 in1031.8 mb - 0.00 in0.0 mm 0.00 in0.0 mm
05:00 AM 58.0°F14.4°C 58.0°F14.4°C 100% Calm Calm -- 30.47 in1031.8 mb - 0.00 in0.0 mm 0.00 in0.0 mm
04:50 AM 58.3°F14.6°C 58.3°F14.6°C 100% Calm Calm -- 30.46 in1031.5 mb - 0.00 in0.0 mm 0.00 in0.0 mm
04:40 AM 58.7°F14.8°C 58.7°F14.8°C 100% Calm Calm -- 30.46 in1031.5 mb - 0.00 in0.0 mm 0.00 in0.0 mm
04:30 AM 59.0°F15.0°C 59.0°F15.0°C 100% Calm Calm -- 30.46 in1031.5 mb - 0.00 in0.0 mm 0.00 in0.0 mm
04:20 AM 59.3°F15.2°C 59.3°F15.2°C 100% Calm Calm -- 30.46 in1031.5 mb - 0.00 in0.0 mm 0.00 in0.0 mm
04:10 AM 59.2°F15.1°C 59.2°F15.1°C 100% Calm Calm -- 30.46 in1031.5 mb - 0.00 in0.0 mm 0.00 in0.0 mm
04:00 AM 58.9°F14.9°C 58.9°F14.9°C 100% Calm Calm -- 30.46 in1031.5 mb - 0.00 in0.0 mm 0.00 in0.0 mm
03:50 AM 58.8°F14.9°C 58.8°F14.9°C 100% Calm Calm -- 30.46 in1031.5 mb - 0.00 in0.0 mm 0.00 in0.0 mm
03:40 AM 58.7°F14.8°C 58.7°F14.8°C 100% Calm Calm -- 30.46 in1031.5 mb - 0.00 in0.0 mm 0.00 in0.0 mm
03:30 AM 58.3°F14.6°C 58.3°F14.6°C 100% Calm Calm -- 30.46 in1031.5 mb - 0.00 in0.0 mm 0.00 in0.0 mm
03:20 AM 58.2°F14.6°C 58.2°F14.6°C 100% Calm Calm -- 30.47 in1031.8 mb - 0.00 in0.0 mm 0.00 in0.0 mm
03:10 AM 58.4°F14.7°C 58.4°F14.7°C 100% Calm Calm -- 30.47 in1031.8 mb - 0.00 in0.0 mm 0.00 in0.0 mm
03:00 AM 58.6°F14.8°C 58.6°F14.8°C 100% Calm Calm -- 30.47 in1031.8 mb - 0.00 in0.0 mm 0.00 in0.0 mm
02:50 AM 58.3°F14.6°C 58.3°F14.6°C 100% Calm Calm -- 30.47 in1031.8 mb - 0.00 in0.0 mm 0.00 in0.0 mm
02:40 AM 58.3°F14.6°C 58.3°F14.6°C 100% Calm Calm -- 30.47 in1031.8 mb - 0.00 in0.0 mm 0.00 in0.0 mm
02:30 AM 58.5°F14.7°C 58.5°F14.7°C 100% Calm Calm -- 30.48 in1032.2 mb - 0.00 in0.0 mm 0.00 in0.0 mm
02:20 AM 58.4°F14.7°C 58.4°F14.7°C 100% Calm Calm -- 30.47 in1031.8 mb - 0.00 in0.0 mm 0.00 in0.0 mm
02:10 AM 58.4°F14.7°C 58.4°F14.7°C 100% Calm Calm -- 30.48 in1032.2 mb - 0.00 in0.0 mm 0.00 in0.0 mm
02:00 AM 58.6°F14.8°C 58.6°F14.8°C 100% Calm Calm -- 30.48 in1032.2 mb - 0.00 in0.0 mm 0.00 in0.0 mm
01:50 AM 58.3°F14.6°C 58.3°F14.6°C 100% Calm Calm -- 30.48 in1032.2 mb - 0.00 in0.0 mm 0.00 in0.0 mm
01:40 AM 58.2°F14.6°C 58.2°F14.6°C 100% Calm Calm -- 30.48 in1032.2 mb - 0.00 in0.0 mm 0.00 in0.0 mm
01:30 AM 58.2°F14.6°C 58.2°F14.6°C 100% Calm Calm -- 30.48 in1032.2 mb - 0.00 in0.0 mm 0.00 in0.0 mm
01:20 AM 58.0°F14.4°C 58.0°F14.4°C 100% Calm Calm -- 30.48 in1032.2 mb - 0.00 in0.0 mm 0.00 in0.0 mm
01:10 AM 57.9°F14.4°C 57.0°F13.9°C 97% Calm Calm -- 30.48 in1032.2 mb - 0.00 in0.0 mm 0.00 in0.0 mm
01:00 AM 57.8°F14.3°C 56.9°F13.8°C 97% Calm Calm -- 30.48 in1032.2 mb - 0.00 in0.0 mm 0.00 in0.0 mm
12:50 AM 57.9°F14.4°C 57.1°F13.9°C 97% Calm Calm -- 30.48 in1032.2 mb - 0.00 in0.0 mm 0.00 in0.0 mm
12:40 AM 57.9°F14.4°C 57.1°F13.9°C 97% Calm Calm -- 30.48 in1032.2 mb - 0.00 in0.0 mm 0.00 in0.0 mm
12:30 AM 58.0°F14.4°C 57.2°F14.0°C 97% Calm Calm -- 30.48 in1032.2 mb - 0.00 in0.0 mm 0.00 in0.0 mm
12:20 AM 58.2°F14.6°C 57.1°F13.9°C 96% Calm Calm -- 30.48 in1032.2 mb - 0.00 in0.0 mm 0.00 in0.0 mm
12:10 AM 58.4°F14.7°C 57.6°F14.2°C 97% Calm Calm -- 30.48 in1032.2 mb - 0.00 in0.0 mm 0.00 in0.0 mm
12:00 AM 58.6°F14.8°C 57.8°F14.3°C 97% Calm Calm -- 30.48 in1032.2 mb - 0.00 in0.0 mm 0.00 in0.0 mm